Time;durP1;ratioP1;P1;durP2;ratioP2;P2;SDS_P1;SDS_P2;PMS_P1;PMS_P2;Temp;Humidity;BMP_temperature;BMP_pressure;BME280_temperature;BME280_humidity;BME280_pressure;Samples;Min_cycle;Max_cycle;Signal;HPM_P1;HPM_P2
2022/04/25 00:00:04;;;;;;;23.80;14.52;;;8.70;99.90;;;;;;4934433;29;20051;-84
2022/04/25 00:02:30;;;;;;;22.75;13.77;;;8.50;99.90;;;;;;4886890;29;20048;-82
2022/04/25 00:04:56;;;;;;;21.42;12.38;;;8.70;99.90;;;;;;4914630;29;20052;-83
2022/04/25 00:07:22;;;;;;;23.15;15.07;;;8.70;99.90;;;;;;4930730;29;20100;-83
2022/04/25 00:09:49;;;;;;;23.70;14.77;;;8.60;99.90;;;;;;4914515;29;20051;-85
2022/04/25 00:12:14;;;;;;;20.70;15.40;;;8.50;99.90;;;;;;4898896;29;20052;-84
2022/04/25 00:14:40;;;;;;;23.38;14.48;;;8.50;99.90;;;;;;4914076;29;20139;-85
2022/04/25 00:17:06;;;;;;;22.23;14.10;;;8.50;99.90;;;;;;4899134;29;20048;-85
2022/04/25 00:19:31;;;;;;;19.70;14.70;;;8.40;99.90;;;;;;4882987;29;20087;-84
2022/04/25 00:21:57;;;;;;;22.42;14.57;;;8.60;99.90;;;;;;4916203;29;20139;-84
2022/04/25 00:24:23;;;;;;;22.52;14.60;;;8.50;99.90;;;;;;4947671;29;20068;-83
2022/04/25 00:26:49;;;;;;;23.98;15.65;;;8.60;99.90;;;;;;4933112;29;20056;-83
2022/04/25 00:29:14;;;;;;;27.13;16.23;;;8.50;99.90;;;;;;4939084;29;20052;-84
2022/04/25 00:31:40;;;;;;;24.38;16.23;;;8.50;99.90;;;;;;4930954;29;20127;-84
2022/04/25 00:34:06;;;;;;;24.05;16.48;;;8.50;99.90;;;;;;4930951;29;20084;-85
2022/04/25 00:36:32;;;;;;;23.80;15.75;;;8.40;99.90;;;;;;4898701;29;20056;-85
2022/04/25 00:38:57;;;;;;;23.92;16.95;;;8.40;99.90;;;;;;4883883;29;20058;-85
2022/04/25 00:41:23;;;;;;;25.30;16.52;;;8.30;99.90;;;;;;4932460;29;20413;-83
2022/04/25 00:43:49;;;;;;;27.77;18.35;;;9.00;99.90;;;;;;4933916;29;20087;-82
2022/04/25 00:46:21;;;;;;;32.95;18.63;;;8.30;99.90;;;;;;4903972;29;20052;-85
2022/04/25 00:48:47;;;;;;;28.77;17.10;;;8.30;99.90;;;;;;4890049;29;20048;-83
2022/04/25 00:51:13;;;;;;;27.52;17.40;;;8.30;99.90;;;;;;4936756;29;20063;-85
2022/04/25 00:53:39;;;;;;;24.73;17.30;;;8.30;99.90;;;;;;4919656;29;20454;-83
2022/04/25 00:56:05;;;;;;;29.30;17.75;;;8.30;99.90;;;;;;4920104;29;20056;-83
2022/04/25 00:58:31;;;;;;;24.92;17.10;;;8.30;99.90;;;;;;4918227;29;20135;-84
2022/04/25 01:00:56;;;;;;;25.67;18.00;;;8.20;99.90;;;;;;4918496;29;20129;-85
2022/04/25 01:03:22;;;;;;;28.40;19.13;;;8.10;99.90;;;;;;4934162;29;20059;-84
2022/04/25 01:05:48;;;;;;;26.20;17.15;;;8.10;99.90;;;;;;4933750;29;20048;-83
2022/04/25 01:08:13;;;;;;;26.23;18.60;;;8.10;99.90;;;;;;4919335;29;20048;-84
2022/04/25 01:10:39;;;;;;;30.83;16.30;;;8.10;99.90;;;;;;4917458;29;20071;-83
2022/04/25 01:13:05;;;;;;;30.00;19.88;;;7.90;99.90;;;;;;4901878;29;20155;-83
2022/04/25 01:15:31;;;;;;;27.65;18.35;;;7.90;99.90;;;;;;4933336;29;20048;-82
2022/04/25 01:17:57;;;;;;;32.63;19.75;;;7.80;99.90;;;;;;4917895;29;20469;-84
2022/04/25 01:20:22;;;;;;;29.52;17.90;;;7.80;99.90;;;;;;4902182;29;20048;-85
2022/04/25 01:27:15;;;;;;;31.05;19.23;;;7.80;99.90;;;;;;4901485;29;20052;-85
2022/04/25 01:28:28;;;;;;;31.00;18.88;;;7.70;99.90;;;;;;4933801;29;20052;-85
2022/04/25 01:30:54;;;;;;;30.90;19.42;;;7.80;99.90;;;;;;4917956;29;20044;-85
2022/04/25 01:33:19;;;;;;;28.60;19.15;;;7.70;99.90;;;;;;4937229;29;20104;-84
2022/04/25 01:35:45;;;;;;;27.85;17.58;;;7.70;99.90;;;;;;4945660;29;20084;-85
2022/04/25 01:38:11;;;;;;;24.50;15.93;;;7.70;99.90;;;;;;4944833;29;20052;-84
2022/04/25 01:40:36;;;;;;;32.00;18.33;;;7.80;99.90;;;;;;4924529;29;20112;-83
2022/04/25 01:43:02;;;;;;;26.75;17.02;;;7.80;99.90;;;;;;4907228;29;20107;-84
2022/04/25 01:45:28;;;;;;;22.98;16.08;;;7.80;99.90;;;;;;4903977;29;20064;-85
2022/04/25 01:47:54;;;;;;;23.73;14.55;;;7.80;99.90;;;;;;4902787;29;20059;-84
2022/04/25 01:50:20;;;;;;;27.40;17.88;;;8.60;99.90;;;;;;4934603;29;20059;-85
2022/04/25 01:52:45;;;;;;;30.58;19.35;;;7.80;99.90;;;;;;4901428;29;20070;-85
2022/04/25 01:55:11;;;;;;;28.90;18.02;;;7.70;99.90;;;;;;4917887;29;20052;-84
2022/04/25 01:57:37;;;;;;;32.38;19.30;;;7.70;99.90;;;;;;4916898;29;20485;-85
2022/04/25 02:00:03;;;;;;;28.30;19.05;;;7.80;99.90;;;;;;4918761;29;20052;-84
2022/04/25 02:02:29;;;;;;;31.92;20.00;;;7.60;99.90;;;;;;4901441;29;20051;-85
2022/04/25 02:04:55;;;;;;;26.90;18.42;;;7.60;99.90;;;;;;4917051;29;20217;-85
2022/04/25 02:07:21;;;;;;;27.85;18.05;;;7.70;99.90;;;;;;4917347;29;20167;-85
2022/04/25 02:09:47;;;;;;;27.23;17.85;;;7.60;99.90;;;;;;4901206;29;20063;-84
2022/04/25 02:12:13;;;;;;;25.10;16.75;;;;;;;;;;4885769;29;20493;-84
2022/04/25 02:14:41;;;;;;;30.98;18.60;;;7.70;99.90;;;;;;4915863;29;20076;-84
2022/04/25 02:17:07;;;;;;;25.92;16.20;;;8.40;99.90;;;;;;4917504;29;20531;-84
2022/04/25 02:19:35;;;;;;;22.95;14.45;;;7.80;99.90;;;;;;4885203;29;20087;-85
2022/04/25 02:22:01;;;;;;;26.20;17.25;;;7.90;99.90;;;;;;4900519;29;20088;-85
2022/04/25 02:24:27;;;;;;;22.58;13.48;;;7.80;99.90;;;;;;4900991;29;20056;-85
2022/04/25 02:26:53;;;;;;;29.40;17.08;;;8.00;99.90;;;;;;4900396;29;20110;-85
2022/04/25 02:29:22;;;;;;;21.63;14.52;;;7.90;99.90;;;;;;4900590;29;20547;-84
2022/04/25 02:31:48;;;;;;;28.15;16.40;;;7.90;99.90;;;;;;4901049;29;20068;-84
2022/04/25 02:34:13;;;;;;;18.30;11.38;;;7.90;99.90;;;;;;4916389;29;20048;-85
2022/04/25 02:36:39;;;;;;;23.08;14.90;;;9.00;99.90;;;;;;4900519;29;20131;-83
2022/04/25 02:39:05;;;;;;;18.50;11.15;;;8.00;99.90;;;;;;4900893;29;20089;-84
2022/04/25 02:41:31;;;;;;;23.77;14.43;;;8.10;99.90;;;;;;4900734;29;20075;-84
2022/04/25 02:43:56;;;;;;;23.33;15.00;;;8.20;99.90;;;;;;4924807;29;20056;-82
2022/04/25 02:46:22;;;;;;;21.55;13.95;;;8.00;99.90;;;;;;4934862;29;20052;-84
2022/04/25 02:48:47;;;;;;;24.73;15.18;;;8.00;99.90;;;;;;4932633;29;20044;-84
2022/04/25 02:51:14;;;;;;;21.17;13.80;;;8.00;99.90;;;;;;4918375;29;20062;-84
2022/04/25 02:53:40;;;;;;;19.40;12.20;;;8.00;99.90;;;;;;4916083;29;20086;-85
2022/04/25 02:56:06;;;;;;;19.95;12.07;;;8.00;99.90;;;;;;4917184;29;20048;-84
2022/04/25 02:58:32;;;;;;;19.63;12.13;;;8.10;99.90;;;;;;4916896;29;20040;-85
2022/04/25 03:00:58;;;;;;;13.93;8.27;;;8.10;99.90;;;;;;4915171;29;20099;-86
2022/04/25 03:03:24;;;;;;;19.65;10.93;;;8.10;99.90;;;;;;4900161;29;20064;-84
2022/04/25 03:05:50;;;;;;;21.27;13.18;;;8.20;99.90;;;;;;4930792;29;20560;-85
2022/04/25 03:08:19;;;;;;;21.05;12.18;;;8.30;99.90;;;;;;4899947;29;20052;-85
2022/04/25 03:10:46;;;;;;;24.25;14.43;;;8.20;99.90;;;;;;4913721;29;20056;-84
2022/04/25 03:13:12;;;;;;;19.33;11.13;;;8.20;99.90;;;;;;4915132;29;20512;-85
2022/04/25 03:15:40;;;;;;;24.60;15.73;;;8.10;99.90;;;;;;4899667;29;20056;-84
2022/04/25 03:18:07;;;;;;;15.45;8.85;;;8.00;99.90;;;;;;4915371;29;20051;-85
2022/04/25 03:20:33;;;;;;;20.10;12.40;;;8.00;99.90;;;;;;4899289;29;20067;-85
2022/04/25 03:22:59;;;;;;;17.20;10.98;;;8.40;99.90;;;;;;4914553;29;20103;-85
2022/04/25 03:25:24;;;;;;;22.77;14.43;;;8.10;99.90;;;;;;4899148;29;20055;-85
2022/04/25 03:27:50;;;;;;;25.05;9.02;;;8.00;99.90;;;;;;4899017;29;20056;-82
2022/04/25 03:30:18;;;;;;;24.60;15.48;;;8.10;99.90;;;;;;4902685;29;20100;-83
2022/04/25 03:32:47;;;;;;;20.92;13.32;;;7.90;99.90;;;;;;4905231;29;20044;-85
2022/04/25 03:35:13;;;;;;;16.10;9.15;;;8.00;99.90;;;;;;4898956;29;20396;-85
2022/04/25 03:37:39;;;;;;;20.83;14.55;;;8.10;99.90;;;;;;4914621;29;20048;-84
2022/04/25 03:40:05;;;;;;;23.63;13.00;;;7.90;99.90;;;;;;4914056;29;20259;-84
2022/04/25 03:42:31;;;;;;;18.33;10.13;;;8.00;99.90;;;;;;4920024;29;20051;-84
2022/04/25 03:44:57;;;;;;;16.27;11.13;;;7.90;99.90;;;;;;4934628;29;20052;-84
2022/04/25 03:47:23;;;;;;;20.48;11.18;;;7.90;99.90;;;;;;4903253;29;20126;-84
2022/04/25 03:49:49;;;;;;;23.67;14.90;;;8.00;99.90;;;;;;4916770;29;20048;-84
2022/04/25 03:52:15;;;;;;;18.27;10.50;;;7.70;99.90;;;;;;4914667;29;20633;-85
2022/04/25 03:57:25;;;;;;;15.30;10.00;;;8.00;99.90;;;;;;4915685;29;20060;-83
2022/04/25 03:59:50;;;;;;;17.58;9.65;;;9.00;99.90;;;;;;4898620;29;20064;-84
2022/04/25 04:02:16;;;;;;;19.95;12.57;;;8.00;99.90;;;;;;4898930;29;20400;-85
2022/04/25 04:04:42;;;;;;;16.92;11.80;;;8.50;99.90;;;;;;4915529;29;20052;-83
2022/04/25 04:07:08;;;;;;;16.05;9.75;;;7.70;99.90;;;;;;4915131;29;20400;-85
2022/04/25 04:09:46;;;;;;;18.27;10.65;;;8.00;99.90;;;;;;4930267;29;20052;-84
2022/04/25 04:12:12;;;;;;;22.73;13.70;;;8.00;99.90;;;;;;4915577;29;20056;-83
2022/04/25 04:14:39;;;;;;;22.65;13.80;;;7.80;99.90;;;;;;4915736;29;20074;-84
2022/04/25 04:17:07;;;;;;;22.27;12.82;;;7.80;99.90;;;;;;4883126;29;20056;-84
2022/04/25 04:19:33;;;;;;;17.73;12.18;;;7.70;99.90;;;;;;4898642;29;20056;-83
2022/04/25 04:22:02;;;;;;;16.80;10.00;;;7.70;99.90;;;;;;4898559;29;20055;-83
2022/04/25 04:24:28;;;;;;;19.77;12.75;;;7.70;99.90;;;;;;4930346;29;20119;-82
2022/04/25 04:26:55;;;;;;;21.95;12.07;;;7.70;99.90;;;;;;4930200;29;20092;-84
2022/04/25 04:29:21;;;;;;;21.92;12.38;;;7.70;99.90;;;;;;4914651;29;20052;-83
2022/04/25 04:31:47;;;;;;;18.75;12.45;;;7.80;99.90;;;;;;4915550;29;20052;-83
2022/04/25 04:34:13;;;;;;;20.80;11.85;;;7.90;99.90;;;;;;4913445;29;20044;-83
2022/04/25 04:36:38;;;;;;;16.65;10.40;;;9.00;99.90;;;;;;4929996;29;20059;-83
2022/04/25 04:39:04;;;;;;;17.23;11.55;;;8.00;99.90;;;;;;4881986;29;20052;-84
2022/04/25 04:41:30;;;;;;;18.42;11.30;;;8.00;99.90;;;;;;4929324;29;20048;-83
2022/04/25 04:43:57;;;;;;;16.73;11.27;;;8.20;99.90;;;;;;4912885;29;20104;-84
2022/04/25 04:46:24;;;;;;;17.42;8.50;;;8.10;99.90;;;;;;4913615;29;20052;-83
2022/04/25 04:48:50;;;;;;;17.83;11.93;;;8.10;99.90;;;;;;4913515;29;20095;-84
2022/04/25 04:51:16;;;;;;;23.55;12.02;;;8.20;99.90;;;;;;4897022;29;20095;-84
2022/04/25 04:53:42;;;;;;;11.68;6.90;;;8.20;99.90;;;;;;4914508;29;20052;-85
2022/04/25 04:56:07;;;;;;;19.55;11.05;;;8.40;99.90;;;;;;4928623;29;20059;-84
2022/04/25 04:58:33;;;;;;;17.33;10.05;;;7.90;99.90;;;;;;4914777;29;20091;-83
2022/04/25 05:00:59;;;;;;;13.95;9.25;;;8.00;99.90;;;;;;4914054;29;20075;-83
2022/04/25 05:03:26;;;;;;;16.42;12.23;;;8.00;99.90;;;;;;4931799;29;20103;-84
2022/04/25 05:05:52;;;;;;;15.90;9.07;;;8.10;99.90;;;;;;4930525;29;20104;-83
2022/04/25 05:08:18;;;;;;;19.42;11.40;;;8.20;99.90;;;;;;4932422;29;20388;-83
2022/04/25 05:10:44;;;;;;;17.83;11.30;;;8.10;99.90;;;;;;4930774;29;20058;-83
2022/04/25 05:13:09;;;;;;;16.95;10.85;;;8.20;99.90;;;;;;4909303;29;20083;-84
2022/04/25 05:15:36;;;;;;;18.67;12.32;;;8.20;99.90;;;;;;4934091;29;20096;-83
2022/04/25 05:18:02;;;;;;;15.02;11.50;;;8.00;99.90;;;;;;4898848;29;20416;-82
2022/04/25 05:20:28;;;;;;;15.30;12.90;;;8.00;99.90;;;;;;4899279;29;20066;-83
2022/04/25 05:22:54;;;;;;;16.50;11.35;;;8.10;99.90;;;;;;4915878;29;20055;-85
2022/04/25 05:25:21;;;;;;;17.63;11.73;;;8.30;99.90;;;;;;4898437;29;20052;-84
2022/04/25 05:27:49;;;;;;;19.20;11.63;;;8.20;99.90;;;;;;4898466;29;20063;-84
2022/04/25 05:30:15;;;;;;;18.00;11.80;;;8.20;99.90;;;;;;4914007;29;20078;-83
2022/04/25 05:32:48;;;;;;;17.15;12.20;;;8.20;99.90;;;;;;4913865;29;20044;-83
2022/04/25 05:35:22;;;;;;;19.80;11.90;;;8.10;99.90;;;;;;4901506;29;20060;-84
2022/04/25 05:37:48;;;;;;;;;;;8.00;99.90;;;;;;4886445;29;20400;-83
2022/04/25 05:40:14;;;;;;;15.27;10.63;;;8.20;99.90;;;;;;4916786;29;20033;-83
2022/04/25 05:42:41;;;;;;;20.45;13.38;;;8.10;99.90;;;;;;4901565;29;20079;-84
2022/04/25 05:45:08;;;;;;;18.98;13.95;;;8.20;99.90;;;;;;4903183;29;20063;-84
2022/04/25 05:47:33;;;;;;;9.98;6.57;;;8.10;99.90;;;;;;4935805;29;20048;-83
2022/04/25 05:52:52;;;;;;;22.83;11.98;;;8.30;99.90;;;;;;4902117;29;20067;-83
2022/04/25 05:55:18;;;;;;;17.27;8.32;;;9.10;99.90;;;;;;4934944;29;20412;-83
2022/04/25 05:57:43;;;;;;;20.27;12.25;;;8.60;99.90;;;;;;4936798;29;20052;-83
2022/04/25 06:00:10;;;;;;;20.10;12.35;;;8.30;99.90;;;;;;4898579;29;20051;-84
2022/04/25 06:02:37;;;;;;;14.93;11.18;;;8.40;99.90;;;;;;4919721;29;20442;-83
2022/04/25 06:05:04;;;;;;;16.38;9.80;;;8.40;99.90;;;;;;4918647;29;20052;-81
2022/04/25 06:07:31;;;;;;;15.88;11.82;;;8.50;99.90;;;;;;4919131;29;20087;-83
2022/04/25 06:09:57;;;;;;;10.00;7.38;;;8.40;99.90;;;;;;4934962;29;20051;-85
2022/04/25 06:12:23;;;;;;;17.48;10.63;;;8.60;99.90;;;;;;4934429;29;20056;-84
2022/04/25 06:14:48;;;;;;;16.00;10.98;;;8.50;99.90;;;;;;4919106;29;20503;-84
2022/04/25 06:17:15;;;;;;;17.38;11.50;;;8.40;99.90;;;;;;4934332;29;20058;-82
2022/04/25 06:19:41;;;;;;;13.63;7.63;;;8.30;99.90;;;;;;4934947;29;20062;-84
2022/04/25 06:22:09;;;;;;;11.80;7.88;;;8.50;99.90;;;;;;4934399;29;20130;-82
2022/04/25 06:24:35;;;;;;;10.65;7.75;;;8.60;99.90;;;;;;4934894;29;20062;-82
2022/04/25 06:27:02;;;;;;;15.10;9.38;;;8.80;99.90;;;;;;4935308;29;20428;-81
2022/04/25 06:29:29;;;;;;;11.75;8.77;;;8.70;99.90;;;;;;4934124;29;20483;-82
2022/04/25 06:31:55;;;;;;;10.55;8.55;;;8.60;99.90;;;;;;4933896;29;20369;-83
2022/04/25 06:34:21;;;;;;;12.18;9.50;;;8.50;99.90;;;;;;4934096;29;20059;-83
2022/04/25 06:36:50;;;;;;;8.95;6.05;;;8.60;99.90;;;;;;4902931;29;20047;-84
2022/04/25 06:39:16;;;;;;;11.98;7.35;;;8.70;99.90;;;;;;4934229;29;20055;-83
2022/04/25 06:41:42;;;;;;;12.38;7.80;;;8.50;99.90;;;;;;4934501;29;20123;-84
2022/04/25 06:44:07;;;;;;;13.10;8.55;;;8.80;99.90;;;;;;4920724;29;20051;-81
2022/04/25 06:46:33;;;;;;;12.30;9.05;;;8.70;99.90;;;;;;4948499;29;20043;-81
2022/04/25 06:51:43;;;;;;;17.02;10.52;;;8.50;99.90;;;;;;4935672;29;20535;-82
2022/04/25 06:54:09;;;;;;;16.13;10.52;;;8.20;99.90;;;;;;4945748;29;20056;-80
2022/04/25 06:56:35;;;;;;;16.38;8.70;;;8.20;99.90;;;;;;4933967;29;20054;-82
2022/04/25 06:59:01;;;;;;;12.30;7.30;;;8.30;99.90;;;;;;4902158;29;20063;-83
2022/04/25 07:01:26;;;;;;;14.57;9.68;;;8.30;99.90;;;;;;4932030;29;20412;-82
2022/04/25 07:03:52;;;;;;;13.73;8.27;;;8.20;99.90;;;;;;4901989;29;20504;-83
2022/04/25 07:06:18;;;;;;;14.75;9.23;;;8.10;99.90;;;;;;4916847;29;20051;-82
2022/04/25 07:08:43;;;;;;;15.18;8.95;;;8.10;99.90;;;;;;4933243;29;20052;-82
2022/04/25 07:11:09;;;;;;;15.93;10.15;;;8.20;99.90;;;;;;4933298;29;20058;-82
2022/04/25 07:13:35;;;;;;;15.60;8.65;;;8.10;99.90;;;;;;4916765;29;20047;-83
2022/04/25 07:16:00;;;;;;;16.15;10.50;;;8.10;99.90;;;;;;4933238;29;20044;-83
2022/04/25 07:18:26;;;;;;;12.88;8.77;;;8.10;99.90;;;;;;4932554;29;20054;-82
2022/04/25 07:20:52;;;;;;;16.60;10.63;;;8.20;99.90;;;;;;4934518;29;20468;-83
2022/04/25 07:28:48;;;;;;;20.02;11.65;;;8.20;99.90;;;;;;4945889;29;20055;-82
2022/04/25 07:31:17;;;;;;;16.83;11.75;;;8.00;99.90;;;;;;4948779;29;20048;-82
2022/04/25 07:33:44;;;;;;;18.83;11.90;;;7.90;99.90;;;;;;4934129;29;20051;-82
2022/04/25 07:36:10;;;;;;;17.52;10.00;;;7.90;99.90;;;;;;4933494;29;20055;-83
2022/04/25 07:38:36;;;;;;;17.73;12.02;;;8.20;99.90;;;;;;4934708;29;20063;-83
2022/04/25 07:41:02;;;;;;;18.30;11.70;;;8.00;99.90;;;;;;4933913;29;20122;-84
2022/04/25 07:43:30;;;;;;;16.30;10.70;;;7.90;99.90;;;;;;4948091;29;20032;-83
2022/04/25 07:45:57;;;;;;;14.07;7.90;;;8.00;99.90;;;;;;4942552;29;20055;-84
2022/04/25 07:48:25;;;;;;;14.93;9.73;;;8.30;99.90;;;;;;4933452;29;20824;-84
2022/04/25 07:50:50;;;;;;;19.65;12.18;;;8.30;99.90;;;;;;4933089;29;20056;-84
2022/04/25 07:53:17;;;;;;;12.27;8.20;;;8.40;99.90;;;;;;4933771;29;20059;-80
2022/04/25 07:55:43;;;;;;;21.98;12.77;;;8.30;99.90;;;;;;4933813;29;20135;-84
2022/04/25 07:58:09;;;;;;;13.60;7.50;;;8.30;99.90;;;;;;4932707;29;20143;-85
2022/04/25 08:00:35;;;;;;;18.15;11.90;;;8.30;99.90;;;;;;4895624;29;20048;-84
2022/04/25 08:03:01;;;;;;;16.85;9.35;;;8.20;99.90;;;;;;4909252;29;20540;-84
2022/04/25 08:05:27;;;;;;;14.23;8.73;;;8.40;99.90;;;;;;4932134;29;20400;-85
2022/04/25 08:07:53;;;;;;;9.35;6.90;;;8.40;99.90;;;;;;4932210;29;20052;-85
2022/04/25 08:10:18;;;;;;;13.02;9.48;;;8.40;99.90;;;;;;4901733;29;20054;-82
2022/04/25 08:18:13;;;;;;;19.98;11.15;;;8.60;99.90;;;;;;4919369;29;20067;-85
2022/04/25 08:20:40;;;;;;;12.55;9.60;;;8.50;99.90;;;;;;4932053;29;20135;-81
2022/04/25 08:23:09;;;;;;;17.92;9.82;;;8.70;99.90;;;;;;4932213;29;20130;-83
2022/04/25 08:25:36;;;;;;;19.95;11.15;;;8.60;99.90;;;;;;4932271;29;20039;-84
2022/04/25 08:28:02;;;;;;;19.77;13.13;;;8.60;99.90;;;;;;4932423;29;20048;-84
2022/04/25 08:30:28;;;;;;;22.33;12.82;;;8.60;99.90;;;;;;4929077;29;20047;-85
2022/04/25 08:32:55;;;;;;;17.17;9.63;;;8.60;99.90;;;;;;4936427;29;20051;-85
2022/04/25 08:35:21;;;;;;;12.55;8.02;;;8.70;99.90;;;;;;4919915;29;20130;-82
2022/04/25 08:37:48;;;;;;;16.60;10.38;;;8.70;99.90;;;;;;4943223;29;20043;-84
2022/04/25 08:40:13;;;;;;;19.60;11.85;;;8.90;99.90;;;;;;4947771;29;20055;-84
2022/04/25 08:42:39;;;;;;;23.65;13.93;;;8.60;99.90;;;;;;4928630;29;20051;-84
2022/04/25 08:45:06;;;;;;;20.00;13.15;;;8.30;99.90;;;;;;4930192;29;20040;-84
2022/04/25 08:47:34;;;;;;;21.67;13.52;;;7.40;99.90;;;;;;4902405;29;20405;-83
2022/04/25 08:49:59;;;;;;;18.40;10.13;;;8.40;99.90;;;;;;4933356;29;20051;-85
2022/04/25 08:52:28;;;;;;;15.80;8.80;;;8.60;99.90;;;;;;4906308;29;20184;-84
2022/04/25 08:54:56;;;;;;;21.00;11.30;;;9.70;99.90;;;;;;4902087;29;20378;-84
2022/04/25 08:57:23;;;;;;;19.45;12.18;;;8.50;99.90;;;;;;4932616;29;20102;-85
2022/04/25 08:59:49;;;;;;;16.67;9.65;;;8.30;99.90;;;;;;4907921;29;20058;-84
2022/04/25 09:02:15;;;;;;;18.25;10.70;;;8.10;99.90;;;;;;4929719;29;20040;-84
2022/04/25 09:04:40;;;;;;;19.13;10.13;;;8.30;99.90;;;;;;4914249;29;20056;-82
2022/04/25 09:07:06;;;;;;;21.33;10.90;;;8.30;99.90;;;;;;4913861;29;20135;-85
2022/04/25 09:09:32;;;;;;;13.68;8.25;;;8.10;99.90;;;;;;4917064;29;20063;-86
2022/04/25 09:12:10;;;;;;;19.90;11.02;;;8.20;99.90;;;;;;4904175;29;20737;-83
2022/04/25 09:14:37;;;;;;;17.42;9.20;;;8.10;99.90;;;;;;4904357;29;20052;-85
2022/04/25 09:17:03;;;;;;;16.55;10.07;;;8.20;99.90;;;;;;4904625;29;20062;-83
2022/04/25 09:19:32;;;;;;;20.42;10.90;;;8.20;99.90;;;;;;4935532;29;20713;-84
2022/04/25 09:21:58;;;;;;;14.43;8.55;;;8.20;99.90;;;;;;4936265;29;20078;-85
2022/04/25 09:24:28;;;;;;;14.52;9.10;;;8.30;99.90;;;;;;4904706;29;20480;-84
2022/04/25 09:27:29;;;;;;;16.13;9.43;;;8.50;99.90;;;;;;4935781;29;20059;-83
2022/04/25 09:29:55;;;;;;;17.15;7.80;;;8.60;99.90;;;;;;4856514;29;20069;-84
2022/04/25 09:32:31;;;;;;;12.48;7.72;;;8.70;99.90;;;;;;4903535;29;20538;-83
2022/04/25 09:35:05;;;;;;;10.48;6.88;;;9.00;99.90;;;;;;4905136;29;20047;-85
2022/04/25 09:37:49;;;;;;;10.93;5.82;;;9.10;99.90;;;;;;4937335;29;20051;-84
2022/04/25 09:40:25;;;;;;;12.93;8.00;;;9.20;99.90;;;;;;4937507;29;20051;-83
2022/04/25 09:43:19;;;;;;;12.25;6.32;;;9.10;99.90;;;;;;4920507;29;20055;-83
2022/04/25 09:45:45;;;;;;;8.70;4.68;;;9.30;99.90;;;;;;4938734;29;20082;-83
2022/04/25 09:48:19;;;;;;;10.85;6.68;;;9.40;99.90;;;;;;4959693;28;20034;-81
2022/04/25 09:51:04;;;;;;;12.20;8.17;;;9.40;99.90;;;;;;4927308;28;20047;-81
2022/04/25 09:54:01;;;;;;;8.57;5.70;;;9.40;99.90;;;;;;4933936;29;20375;-80
2022/04/25 09:56:29;;;;;;;12.82;7.47;;;9.80;99.90;;;;;;4916871;29;20058;-84
2022/04/25 09:59:05;;;;;;;11.07;6.78;;;10.10;99.90;;;;;;4920939;29;20198;-84
2022/04/25 10:01:34;;;;;;;9.35;5.40;;;10.00;99.90;;;;;;4920822;29;20044;-82
2022/04/25 10:04:00;;;;;;;9.45;6.25;;;10.30;99.90;;;;;;4935016;29;20051;-84
2022/04/25 10:06:26;;;;;;;12.05;6.10;;;10.70;99.90;;;;;;4903000;29;20055;-84
2022/04/25 10:08:52;;;;;;;6.65;5.15;;;10.80;99.90;;;;;;4918160;29;20059;-82
2022/04/25 10:11:21;;;;;;;9.05;6.78;;;11.10;99.90;;;;;;4918735;29;20049;-82
2022/04/25 10:13:47;;;;;;;13.27;6.68;;;10.90;99.90;;;;;;4902266;29;20122;-82
2022/04/25 10:16:12;;;;;;;10.07;7.82;;;10.80;99.90;;;;;;4936455;29;20091;-80
2022/04/25 10:18:39;;;;;;;9.45;7.78;;;11.10;99.90;;;;;;4918308;29;20522;-82
2022/04/25 10:21:07;;;;;;;9.82;5.93;;;11.00;99.90;;;;;;4919254;29;20051;-85
2022/04/25 10:23:33;;;;;;;9.65;5.90;;;11.50;99.90;;;;;;4935051;29;20051;-84
2022/04/25 10:25:59;;;;;;;8.98;6.18;;;11.70;99.90;;;;;;4935005;29;20098;-84
2022/04/25 10:28:36;;;;;;;8.70;6.47;;;11.70;99.90;;;;;;4922209;29;20083;-82
2022/04/25 10:31:10;;;;;;;13.93;8.02;;;11.40;99.90;;;;;;4924739;29;20472;-83
2022/04/25 10:33:52;;;;;;;8.55;7.07;;;11.40;99.90;;;;;;4902624;29;20423;-82
2022/04/25 10:36:37;;;;;;;7.63;5.53;;;11.40;99.90;;;;;;4919189;29;20480;-85
2022/04/25 10:39:31;;;;;;;10.00;5.78;;;11.60;99.90;;;;;;4935018;29;20052;-85
2022/04/25 10:44:42;;;;;;;8.50;5.30;;;11.60;99.90;;;;;;4934654;29;20393;-83
2022/04/25 10:47:13;;;;;;;12.43;6.90;;;11.50;99.90;;;;;;4936285;29;20062;-84
2022/04/25 10:49:48;;;;;;;10.30;7.60;;;11.50;99.90;;;;;;4935821;29;20082;-84
2022/04/25 10:55:23;;;;;;;11.48;7.80;;;11.50;99.90;;;;;;4934396;29;20408;-81
2022/04/25 10:58:05;;;;;;;10.77;7.38;;;11.40;99.90;;;;;;4918550;29;20052;-81
2022/04/25 11:00:39;;;;;;;9.27;7.15;;;11.70;99.90;;;;;;4935734;29;20087;-82
2022/04/25 11:03:05;;;;;;;9.73;7.65;;;12.00;99.90;;;;;;4933851;29;20056;-81
2022/04/25 11:05:31;;;;;;;8.43;6.07;;;11.80;99.90;;;;;;4933609;29;20048;-82
2022/04/25 11:08:18;;;;;;;8.10;5.93;;;12.20;99.90;;;;;;4934185;29;20059;-80
2022/04/25 11:10:45;;;;;;;11.02;7.82;;;12.30;99.90;;;;;;4915330;29;20052;-80
2022/04/25 11:13:16;;;;;;;13.85;7.40;;;12.20;99.90;;;;;;4897734;29;20070;-82
2022/04/25 11:15:49;;;;;;;12.45;8.82;;;12.00;99.90;;;;;;4899972;29;20052;-84
2022/04/25 11:18:33;;;;;;;13.50;9.30;;;12.10;99.90;;;;;;4915530;29;20060;-82
2022/04/25 11:21:04;;;;;;;13.90;10.13;;;11.80;99.90;;;;;;4923150;29;20054;-82
2022/04/25 11:23:34;;;;;;;11.93;9.73;;;12.00;99.90;;;;;;4915675;29;20359;-82
2022/04/25 11:26:00;;;;;;;8.55;7.72;;;11.80;99.90;;;;;;4898828;29;20169;-80
2022/04/25 11:28:26;;;;;;;13.50;9.57;;;12.30;99.90;;;;;;4922685;29;20044;-79
2022/04/25 11:31:13;;;;;;;12.48;9.30;;;12.00;99.90;;;;;;4913104;29;20493;-80
2022/04/25 11:33:46;;;;;;;12.35;8.98;;;12.10;99.90;;;;;;4933071;29;20448;-82
2022/04/25 11:36:13;;;;;;;11.60;9.02;;;12.70;99.90;;;;;;4916846;29;20055;-81
2022/04/25 11:41:23;;;;;;;;;;;13.00;99.90;;;;;;4916544;29;20111;-80
2022/04/25 11:43:49;;;;;;;11.43;8.88;;;12.80;99.90;;;;;;4933038;29;19974;-82
2022/04/25 11:46:16;;;;;;;13.25;8.15;;;13.00;99.90;;;;;;4932884;29;20040;-83
2022/04/25 11:48:42;;;;;;;11.35;8.55;;;12.70;99.90;;;;;;4917052;29;20131;-80
2022/04/25 11:51:08;;;;;;;11.32;9.68;;;12.50;99.90;;;;;;4932299;29;20055;-81
2022/04/25 11:53:34;;;;;;;9.85;8.85;;;12.60;99.90;;;;;;4913957;29;20040;-80
2022/04/25 11:56:12;;;;;;;8.20;6.38;;;12.90;99.90;;;;;;4932006;29;20059;-82
2022/04/25 11:58:38;;;;;;;15.25;9.02;;;13.40;99.90;;;;;;4916307;29;20059;-82
2022/04/25 12:01:03;;;;;;;9.95;7.95;;;13.60;99.90;;;;;;4895926;29;20059;-83
2022/04/25 12:03:30;;;;;;;10.77;8.98;;;13.20;99.90;;;;;;4893867;29;20056;-83
2022/04/25 12:06:07;;;;;;;11.85;7.93;;;12.80;99.90;;;;;;4934189;29;20051;-82
2022/04/25 12:16:46;;;;;;;11.70;8.55;;;13.20;99.90;;;;;;4918276;29;20288;-82
2022/04/25 12:19:13;;;;;;;9.60;8.23;;;13.00;99.90;;;;;;4901895;29;20116;-81
2022/04/25 12:21:47;;;;;;;12.70;8.07;;;12.90;99.90;;;;;;4932842;29;20133;-82
2022/04/25 12:24:19;;;;;;;11.00;8.73;;;13.20;99.90;;;;;;4933595;29;20098;-81
2022/04/25 12:26:44;;;;;;;10.57;8.73;;;13.10;99.90;;;;;;4933671;29;20500;-82
2022/04/25 12:29:12;;;;;;;9.77;8.55;;;13.10;99.90;;;;;;4916838;29;20052;-82
2022/04/25 12:31:45;;;;;;;12.82;8.55;;;13.00;99.90;;;;;;4936005;29;20047;-82
2022/04/25 12:34:12;;;;;;;11.17;8.00;;;13.30;99.90;;;;;;4940124;29;20039;-81
2022/04/25 12:36:39;;;;;;;10.90;9.00;;;13.30;99.90;;;;;;4944994;29;20099;-79
2022/04/25 12:39:14;;;;;;;11.27;9.00;;;12.90;99.90;;;;;;4922132;29;20118;-81
2022/04/25 12:42:09;;;;;;;13.55;8.88;;;13.00;99.90;;;;;;4936351;29;20136;-81
2022/04/25 12:44:35;;;;;;;12.82;9.10;;;12.90;99.90;;;;;;4926594;29;20104;-82
2022/04/25 12:47:04;;;;;;;12.98;8.38;;;12.70;99.90;;;;;;4941853;29;20056;-82
2022/04/25 12:49:33;;;;;;;12.77;9.50;;;12.70;99.90;;;;;;4929658;29;20060;-81
2022/04/25 12:51:59;;;;;;;10.45;8.90;;;12.90;99.90;;;;;;4933635;29;20051;-81
2022/04/25 12:54:32;;;;;;;11.98;8.50;;;12.80;99.90;;;;;;4937422;29;20052;-81
2022/04/25 12:57:15;;;;;;;14.02;9.20;;;12.70;99.90;;;;;;4923578;29;20055;-81
2022/04/25 12:59:42;;;;;;;11.13;8.73;;;12.60;99.90;;;;;;4904731;29;20138;-80
2022/04/25 13:02:17;;;;;;;10.90;8.65;;;12.80;99.90;;;;;;4903144;29;20044;-82
2022/04/25 13:04:55;;;;;;;13.57;9.10;;;12.80;99.90;;;;;;4918854;29;20064;-81
2022/04/25 13:07:22;;;;;;;10.93;8.55;;;12.70;99.90;;;;;;4936171;29;20054;-82
2022/04/25 13:09:48;;;;;;;21.13;10.48;;;12.80;99.90;;;;;;4936069;29;20058;-81
2022/04/25 13:12:15;;;;;;;11.93;8.57;;;12.70;99.90;;;;;;4936568;29;20059;-81
2022/04/25 13:14:41;;;;;;;13.52;9.18;;;12.80;99.90;;;;;;4920462;29;20056;-82
2022/04/25 13:17:07;;;;;;;14.43;9.50;;;12.70;99.90;;;;;;4904209;29;20119;-81
2022/04/25 13:19:33;;;;;;;12.93;8.77;;;12.80;99.90;;;;;;4936546;29;20453;-81
2022/04/25 13:21:58;;;;;;;11.63;8.32;;;12.90;99.90;;;;;;4918619;29;20396;-81